createdAt,value
2017-07-06T00:00:20.774Z,18.80
2017-07-06T00:02:48.983Z,18.80
2017-07-06T00:05:17.327Z,18.80
2017-07-06T00:07:46.306Z,18.70
2017-07-06T00:10:14.519Z,18.70
2017-07-06T00:12:42.863Z,18.70
2017-07-06T00:15:11.041Z,18.60
2017-07-06T00:17:39.249Z,18.60
2017-07-06T00:20:07.449Z,18.50
2017-07-06T00:22:35.669Z,18.60
2017-07-06T00:25:03.870Z,18.60
2017-07-06T00:27:32.083Z,18.50
2017-07-06T00:30:00.302Z,18.50
2017-07-06T00:32:28.579Z,18.50
2017-07-06T00:34:57.685Z,18.40
2017-07-06T00:37:26.786Z,18.40
2017-07-06T00:39:55.081Z,18.40
2017-07-06T00:42:23.352Z,18.40
2017-07-06T00:44:51.613Z,18.30
2017-07-06T00:47:19.885Z,18.30
2017-07-06T00:49:48.111Z,18.30
2017-07-06T00:52:16.333Z,18.30
2017-07-06T00:54:44.532Z,18.20
2017-07-06T00:57:12.765Z,18.20
2017-07-06T00:59:40.968Z,18.20
2017-07-06T01:02:09.163Z,18.20
2017-07-06T01:04:37.426Z,18.20
2017-07-06T01:07:05.721Z,18.10
2017-07-06T01:09:33.978Z,18.00
2017-07-06T01:12:02.954Z,17.90
2017-07-06T01:14:31.142Z,17.80
2017-07-06T01:17:00.127Z,17.80
2017-07-06T01:19:28.535Z,17.80
2017-07-06T01:21:56.807Z,17.70
2017-07-06T01:24:25.008Z,17.80
2017-07-06T01:26:53.223Z,17.80
2017-07-06T01:29:21.414Z,17.70
2017-07-06T01:31:49.694Z,17.70
2017-07-06T01:34:17.897Z,17.70
2017-07-06T01:36:46.102Z,17.70
2017-07-06T01:39:14.333Z,17.70
2017-07-06T01:41:42.615Z,17.60
2017-07-06T01:44:11.593Z,17.60
2017-07-06T01:46:39.792Z,17.60
2017-07-06T01:49:08.758Z,17.60
2017-07-06T01:51:37.154Z,17.60
2017-07-06T01:54:06.127Z,17.60
2017-07-06T01:56:34.339Z,17.60
2017-07-06T01:59:02.550Z,17.60
2017-07-06T02:01:30.762Z,17.60
2017-07-06T02:03:58.987Z,17.50
2017-07-06T02:06:27.183Z,17.50
2017-07-06T02:08:55.394Z,17.40
2017-07-06T02:11:23.589Z,17.40
2017-07-06T02:13:52.546Z,17.40
2017-07-06T02:16:20.762Z,17.40
2017-07-06T02:18:48.963Z,17.40
2017-07-06T02:21:17.262Z,17.40
2017-07-06T02:23:45.605Z,17.30
2017-07-06T02:26:13.874Z,17.20
2017-07-06T02:28:42.164Z,17.20
2017-07-06T02:31:10.634Z,17.20
2017-07-06T02:33:38.907Z,17.20
2017-07-06T02:36:07.184Z,17.20
2017-07-06T02:38:36.167Z,17.20
2017-07-06T02:41:04.558Z,17.20
2017-07-06T02:43:32.759Z,17.30
2017-07-06T02:46:00.951Z,17.20
2017-07-06T02:48:29.172Z,17.20
2017-07-06T02:50:57.668Z,17.20
2017-07-06T02:53:25.930Z,17.20
2017-07-06T02:55:54.898Z,17.10
2017-07-06T02:58:23.102Z,17.10
2017-07-06T03:00:51.335Z,17.10
2017-07-06T03:03:19.555Z,17.10
2017-07-06T03:05:47.750Z,17.10
2017-07-06T03:08:16.020Z,17.00
2017-07-06T03:10:44.506Z,17.00
2017-07-06T03:13:12.800Z,16.90
2017-07-06T03:15:41.263Z,16.90
2017-07-06T03:18:10.358Z,17.00
2017-07-06T03:20:38.840Z,16.90
2017-07-06T03:23:07.860Z,16.90
2017-07-06T03:25:36.062Z,16.90
2017-07-06T03:28:04.282Z,16.90
2017-07-06T03:30:32.550Z,16.90
2017-07-06T03:33:01.667Z,16.90
2017-07-06T03:35:29.867Z,16.90
2017-07-06T03:37:58.233Z,16.90
2017-07-06T03:40:26.500Z,16.90
2017-07-06T03:42:54.778Z,16.90
2017-07-06T03:45:23.058Z,16.90
2017-07-06T03:47:51.262Z,16.90
2017-07-06T03:50:19.605Z,16.90
2017-07-06T03:52:47.875Z,16.80
2017-07-06T03:55:16.176Z,16.80
2017-07-06T03:57:44.376Z,16.80
2017-07-06T04:00:12.576Z,16.90
2017-07-06T04:02:40.792Z,16.90
2017-07-06T04:05:08.996Z,17.00
2017-07-06T04:07:37.217Z,17.00
2017-07-06T04:10:05.415Z,17.00
2017-07-06T04:12:33.623Z,17.10
2017-07-06T04:15:02.009Z,17.10
2017-07-06T04:17:30.204Z,17.10
2017-07-06T04:19:58.494Z,17.20
2017-07-06T04:22:26.888Z,17.20
2017-07-06T04:24:55.062Z,17.20
2017-07-06T04:27:24.031Z,17.20
2017-07-06T04:29:52.238Z,17.20
2017-07-06T04:32:21.229Z,17.20
2017-07-06T04:34:49.447Z,17.20
2017-07-06T04:37:17.665Z,17.30
2017-07-06T04:39:45.862Z,17.40
2017-07-06T04:42:14.087Z,17.40
2017-07-06T04:44:42.307Z,17.50
2017-07-06T04:47:10.594Z,17.50
2017-07-06T04:49:39.579Z,17.80
2017-07-06T04:52:07.968Z,17.70
2017-07-06T04:54:36.952Z,17.90
2017-07-06T04:57:05.149Z,17.80
2017-07-06T04:59:33.427Z,17.90
2017-07-06T05:02:01.640Z,18.10
2017-07-06T05:04:29.862Z,18.20
2017-07-06T05:06:58.054Z,18.20
2017-07-06T05:09:26.282Z,18.30
2017-07-06T05:11:54.485Z,18.30
2017-07-06T05:14:22.680Z,18.40
2017-07-06T05:16:50.947Z,18.40
2017-07-06T05:19:19.918Z,18.60
2017-07-06T05:21:48.144Z,18.60
2017-07-06T05:24:16.343Z,19.00
2017-07-06T05:26:44.546Z,20.70
2017-07-06T05:29:12.792Z,22.20
2017-07-06T05:31:41.060Z,22.60
2017-07-06T05:34:09.327Z,22.80
2017-07-06T05:36:37.637Z,24.20
2017-07-06T05:39:05.840Z,26.00
2017-07-06T05:41:34.141Z,27.90
2017-07-06T05:44:03.102Z,30.70
2017-07-06T05:46:31.303Z,30.60
2017-07-06T05:49:00.414Z,32.40
2017-07-06T05:51:29.374Z,32.90
2017-07-06T05:53:57.635Z,32.90
2017-07-06T05:56:25.837Z,33.50
2017-07-06T05:58:54.059Z,34.00
2017-07-06T06:01:22.260Z,34.50
2017-07-06T06:03:50.469Z,34.80
2017-07-06T06:06:18.764Z,35.30
2017-07-06T06:08:47.724Z,36.10
2017-07-06T06:11:15.949Z,36.10
2017-07-06T06:13:44.151Z,36.30
2017-07-06T06:16:12.347Z,36.10
2017-07-06T06:18:40.577Z,36.10
2017-07-06T06:21:08.803Z,36.00
2017-07-06T06:23:37.015Z,36.40
2017-07-06T06:26:05.218Z,36.70
2017-07-06T06:28:33.438Z,37.20
2017-07-06T06:31:01.633Z,37.50
2017-07-06T06:33:29.840Z,37.80
2017-07-06T06:35:58.304Z,38.20
2017-07-06T06:38:27.303Z,39.30
2017-07-06T06:40:55.537Z,39.20
2017-07-06T06:43:23.733Z,39.30
2017-07-06T06:45:52.007Z,39.90
2017-07-06T06:48:20.992Z,40.20
2017-07-06T06:50:49.199Z,40.20
2017-07-06T06:53:17.411Z,40.60
2017-07-06T06:55:45.620Z,41.00
2017-07-06T06:58:13.837Z,40.80
2017-07-06T07:00:42.122Z,40.90
2017-07-06T07:03:10.323Z,41.30
2017-07-06T07:05:38.526Z,42.00
2017-07-06T07:08:06.723Z,42.50
2017-07-06T07:10:35.686Z,42.70
2017-07-06T07:13:03.906Z,42.60
2017-07-06T07:15:32.103Z,43.10
2017-07-06T07:18:00.289Z,43.30
2017-07-06T07:20:28.509Z,43.20
2017-07-06T07:22:57.480Z,43.20
2017-07-06T07:25:25.701Z,43.20
2017-07-06T07:27:54.669Z,43.10
2017-07-06T07:30:23.071Z,43.10
2017-07-06T07:32:52.046Z,42.60
2017-07-06T07:35:20.251Z,42.50
2017-07-06T07:37:48.469Z,42.40
2017-07-06T07:40:16.679Z,41.60
2017-07-06T07:42:44.887Z,41.60
2017-07-06T07:45:13.132Z,42.00
2017-07-06T07:47:41.430Z,42.40
2017-07-06T07:50:09.650Z,42.80
2017-07-06T07:52:37.908Z,42.90
2017-07-06T07:55:06.091Z,43.30
2017-07-06T07:57:34.282Z,43.40
2017-07-06T08:00:02.497Z,43.90
2017-07-06T08:02:30.711Z,44.10
2017-07-06T08:04:58.933Z,44.30
2017-07-06T08:07:27.134Z,43.60
2017-07-06T08:09:55.349Z,43.70
2017-07-06T08:12:23.566Z,44.40
2017-07-06T08:14:51.773Z,45.00
2017-07-06T08:17:19.976Z,45.70
2017-07-06T08:19:48.178Z,45.60
2017-07-06T08:22:16.516Z,45.80
2017-07-06T08:24:44.721Z,46.40
2017-07-06T08:27:13.062Z,46.40
2017-07-06T08:29:41.267Z,46.70
2017-07-06T08:32:09.492Z,46.80
2017-07-06T08:34:37.699Z,46.90
2017-07-06T08:37:05.895Z,46.70
2017-07-06T08:39:34.114Z,46.50
2017-07-06T08:42:02.302Z,46.60
2017-07-06T08:44:30.513Z,46.50
2017-07-06T08:46:58.738Z,46.70
2017-07-06T08:49:26.928Z,46.00
2017-07-06T08:54:30.467Z,45.80
2017-07-06T08:56:58.713Z,46.40
2017-07-06T08:59:27.685Z,46.50
2017-07-06T09:01:55.902Z,46.50
2017-07-06T09:04:24.101Z,47.10
2017-07-06T09:06:53.098Z,47.00
2017-07-06T09:09:21.300Z,47.00
2017-07-06T09:11:49.514Z,47.10
2017-07-06T09:14:17.716Z,46.60
2017-07-06T09:16:45.937Z,46.60
2017-07-06T09:19:14.171Z,46.00
2017-07-06T09:21:42.380Z,45.70
2017-07-06T09:24:10.579Z,46.00
2017-07-06T09:26:38.801Z,45.80
2017-07-06T09:29:07.023Z,46.10
2017-07-06T09:31:35.984Z,44.10
2017-07-06T09:34:04.197Z,44.10
2017-07-06T09:36:33.174Z,44.90
2017-07-06T09:39:01.385Z,44.90
2017-07-06T09:41:29.590Z,45.60
2017-07-06T09:43:57.802Z,46.00
2017-07-06T09:46:26.018Z,45.60
2017-07-06T09:48:54.241Z,45.50
2017-07-06T09:51:22.534Z,45.10
2017-07-06T09:53:51.498Z,43.30
2017-07-06T09:56:19.723Z,43.20
2017-07-06T09:58:48.696Z,43.50
2017-07-06T10:01:16.907Z,43.50
2017-07-06T10:03:45.173Z,44.20
2017-07-06T10:06:14.162Z,43.30
2017-07-06T10:08:42.353Z,43.20
2017-07-06T10:11:10.553Z,44.00
2017-07-06T10:13:38.796Z,44.80
2017-07-06T10:16:07.778Z,44.30
2017-07-06T10:18:36.188Z,44.40
2017-07-06T10:21:05.154Z,43.70
2017-07-06T10:23:33.350Z,43.70
2017-07-06T10:26:01.551Z,44.40
2017-07-06T10:28:30.112Z,44.80
2017-07-06T10:30:59.086Z,45.00
2017-07-06T10:33:27.290Z,45.00
2017-07-06T10:35:55.532Z,45.20
2017-07-06T10:38:23.754Z,45.60
2017-07-06T10:40:51.988Z,46.00
2017-07-06T10:43:20.187Z,45.80
2017-07-06T10:45:48.405Z,45.80
2017-07-06T10:48:16.631Z,45.30
2017-07-06T10:50:44.850Z,44.60
2017-07-06T10:53:13.075Z,43.40
2017-07-06T10:55:41.305Z,43.30
2017-07-06T10:58:09.509Z,43.20
2017-07-06T11:00:37.723Z,42.00
2017-07-06T11:03:05.945Z,42.30
2017-07-06T11:05:34.148Z,42.30
2017-07-06T11:08:02.377Z,42.80
2017-07-06T11:10:30.586Z,42.50
2017-07-06T11:12:59.573Z,39.90
2017-07-06T11:15:27.761Z,39.90
2017-07-06T11:17:55.979Z,37.40
2017-07-06T11:20:24.178Z,36.70
2017-07-06T11:22:52.394Z,35.70
2017-07-06T11:25:20.617Z,35.60
2017-07-06T11:27:48.816Z,35.20
2017-07-06T11:30:17.068Z,34.90
2017-07-06T11:32:45.363Z,34.40
2017-07-06T11:35:13.642Z,34.10
2017-07-06T11:37:41.857Z,33.80
2017-07-06T11:40:10.195Z,33.80
2017-07-06T11:42:38.408Z,33.90
2017-07-06T11:45:06.605Z,34.00
2017-07-06T11:47:34.852Z,34.00
2017-07-06T11:50:03.059Z,33.90
2017-07-06T11:52:31.382Z,33.70
2017-07-06T11:55:00.314Z,33.70
2017-07-06T11:57:28.776Z,33.80
2017-07-06T11:59:56.991Z,33.70
2017-07-06T12:02:25.190Z,33.80
2017-07-06T12:04:54.243Z,34.20
2017-07-06T12:07:22.450Z,34.20
2017-07-06T12:09:52.225Z,34.20
2017-07-06T12:12:20.447Z,34.30
2017-07-06T12:14:48.653Z,34.30
2017-07-06T12:17:16.866Z,34.30
2017-07-06T12:19:45.856Z,34.40
2017-07-06T12:22:14.077Z,34.30
2017-07-06T12:24:43.083Z,34.10
2017-07-06T12:27:11.302Z,34.10
2017-07-06T12:29:39.491Z,34.00
2017-07-06T12:32:07.860Z,33.90
2017-07-06T12:34:36.099Z,33.80
2017-07-06T12:37:05.345Z,33.70
2017-07-06T12:39:33.563Z,33.70
2017-07-06T12:42:01.986Z,33.80
2017-07-06T12:44:30.201Z,33.90
2017-07-06T12:46:58.512Z,33.90
2017-07-06T12:49:27.604Z,33.70
2017-07-06T12:51:56.579Z,33.80
2017-07-06T12:54:24.788Z,33.70
2017-07-06T12:56:53.094Z,33.90
2017-07-06T12:59:21.301Z,34.10
2017-07-06T13:01:49.543Z,34.30
2017-07-06T13:04:17.740Z,34.50
2017-07-06T13:06:45.977Z,34.70
2017-07-06T13:09:14.190Z,35.00
2017-07-06T13:11:42.426Z,34.80
2017-07-06T13:14:10.722Z,34.30
2017-07-06T13:16:38.969Z,34.10
2017-07-06T13:19:07.945Z,34.30
2017-07-06T13:21:36.145Z,34.30
2017-07-06T13:24:04.377Z,34.40
2017-07-06T13:26:37.054Z,34.40
2017-07-06T13:29:06.201Z,34.40
2017-07-06T13:31:34.414Z,34.10
2017-07-06T13:34:02.712Z,33.60
2017-07-06T13:36:30.928Z,33.20
2017-07-06T13:38:59.125Z,33.00
2017-07-06T13:41:27.346Z,32.90
2017-07-06T13:43:55.542Z,32.90
2017-07-06T13:46:23.754Z,32.80
2017-07-06T13:48:51.985Z,32.80
2017-07-06T13:51:20.189Z,32.70
2017-07-06T13:53:48.396Z,32.60
2017-07-06T13:56:16.612Z,32.40
2017-07-06T13:58:44.888Z,32.10
2017-07-06T14:01:13.084Z,31.80
2017-07-06T14:03:41.300Z,31.20
2017-07-06T14:06:09.499Z,30.70
2017-07-06T14:08:37.762Z,30.00
2017-07-06T14:11:06.752Z,28.70
2017-07-06T14:13:34.949Z,28.60
2017-07-06T14:16:03.168Z,28.00
2017-07-06T14:18:31.384Z,27.60
2017-07-06T14:20:59.597Z,27.50
2017-07-06T14:23:27.823Z,27.40
2017-07-06T14:25:56.014Z,27.20
2017-07-06T14:28:24.220Z,27.10
2017-07-06T14:30:52.482Z,27.00
2017-07-06T14:33:21.463Z,26.70
2017-07-06T14:35:49.693Z,26.70
2017-07-06T14:38:17.915Z,26.60
2017-07-06T14:40:46.206Z,26.50
2017-07-06T14:43:14.430Z,26.40
2017-07-06T14:45:42.631Z,26.20
2017-07-06T14:48:10.850Z,26.00
2017-07-06T14:50:39.065Z,25.90
2017-07-06T14:53:07.274Z,25.80
2017-07-06T14:55:35.476Z,25.90
2017-07-06T14:58:04.572Z,25.80
2017-07-06T15:00:33.534Z,25.80
2017-07-06T15:03:01.970Z,25.70
2017-07-06T15:05:30.431Z,25.70
2017-07-06T15:07:59.401Z,25.50
2017-07-06T15:10:27.621Z,25.50
2017-07-06T15:12:55.838Z,25.70
2017-07-06T15:15:24.046Z,26.10
2017-07-06T15:17:52.434Z,26.20
2017-07-06T15:20:24.358Z,26.30
2017-07-06T15:22:52.557Z,26.30
2017-07-06T15:25:20.757Z,26.10
2017-07-06T15:27:48.958Z,25.90
2017-07-06T15:30:17.951Z,25.50
2017-07-06T15:32:46.162Z,25.50
2017-07-06T15:35:14.440Z,25.50
2017-07-06T15:37:42.737Z,25.20
2017-07-06T15:40:10.939Z,24.90
2017-07-06T15:42:39.282Z,24.80
2017-07-06T15:45:07.482Z,24.60
2017-07-06T15:47:35.700Z,24.30
2017-07-06T15:50:03.961Z,23.80
2017-07-06T15:52:32.149Z,23.50
2017-07-06T15:55:01.146Z,22.90
2017-07-06T15:57:29.366Z,22.90
2017-07-06T15:59:57.600Z,22.70
2017-07-06T16:02:26.603Z,22.00
2017-07-06T16:04:54.792Z,22.00
2017-07-06T16:07:23.028Z,21.90
2017-07-06T16:09:51.330Z,21.60
2017-07-06T16:12:19.633Z,21.50
2017-07-06T16:14:47.853Z,21.20
2017-07-06T16:17:16.167Z,20.90
2017-07-06T16:19:44.379Z,20.70
2017-07-06T16:22:12.606Z,20.60
2017-07-06T16:24:40.835Z,20.60
2017-07-06T16:27:09.069Z,20.80
2017-07-06T16:29:37.613Z,20.70
2017-07-06T16:32:05.845Z,20.40
2017-07-06T16:34:34.070Z,20.30
2017-07-06T16:37:02.306Z,20.40
2017-07-06T16:39:30.529Z,20.70
2017-07-06T16:41:58.731Z,21.00
2017-07-06T16:44:26.988Z,21.40
2017-07-06T16:46:55.191Z,21.70
2017-07-06T16:49:23.430Z,22.00
2017-07-06T16:51:51.654Z,22.20
2017-07-06T16:54:19.914Z,22.40
2017-07-06T16:56:48.148Z,22.60
2017-07-06T16:59:16.361Z,22.70
2017-07-06T17:01:44.570Z,23.30
2017-07-06T17:04:12.777Z,23.80
2017-07-06T17:06:40.987Z,23.90
2017-07-06T17:09:09.184Z,24.20
2017-07-06T17:11:37.393Z,24.20
2017-07-06T17:14:05.610Z,23.90
2017-07-06T17:16:33.823Z,23.60
2017-07-06T17:19:02.029Z,23.80
2017-07-06T17:21:30.255Z,24.10
2017-07-06T17:23:58.603Z,24.20
2017-07-06T17:26:26.796Z,23.50
2017-07-06T17:28:55.017Z,22.80
2017-07-06T17:31:23.405Z,22.50
2017-07-06T17:33:51.600Z,22.30
2017-07-06T17:36:19.845Z,22.00
2017-07-06T17:38:48.038Z,21.70
2017-07-06T17:41:16.250Z,21.60
2017-07-06T17:43:44.468Z,21.40
2017-07-06T17:46:12.697Z,21.40
2017-07-06T17:48:40.894Z,21.30
2017-07-06T17:51:09.105Z,21.40
2017-07-06T17:53:37.342Z,21.60
2017-07-06T17:56:05.552Z,21.70
2017-07-06T17:58:34.926Z,21.80
2017-07-06T18:01:03.119Z,21.80
2017-07-06T18:03:31.411Z,21.60
2017-07-06T18:05:59.707Z,21.70
2017-07-06T18:08:27.939Z,21.70
2017-07-06T18:10:56.241Z,21.70
2017-07-06T18:13:24.735Z,21.70
2017-07-06T18:15:53.701Z,21.80
2017-07-06T18:18:21.921Z,21.80
2017-07-06T18:20:50.150Z,21.80
2017-07-06T18:23:18.352Z,21.80
2017-07-06T18:25:46.571Z,21.90
2017-07-06T18:28:14.931Z,21.70
2017-07-06T18:30:43.143Z,21.40
2017-07-06T18:33:11.346Z,21.30
2017-07-06T18:35:39.573Z,21.30
2017-07-06T18:38:08.214Z,21.30
2017-07-06T18:40:36.440Z,21.40
2017-07-06T18:43:04.609Z,21.40
2017-07-06T18:45:32.919Z,21.50
2017-07-06T18:48:01.129Z,21.80
2017-07-06T18:50:29.354Z,22.00
2017-07-06T18:52:57.616Z,22.10
2017-07-06T18:55:25.870Z,22.20
2017-07-06T18:57:54.613Z,22.20
2017-07-06T19:00:23.753Z,21.60
2017-07-06T19:02:52.084Z,21.30
2017-07-06T19:05:20.290Z,21.10
2017-07-06T19:07:49.336Z,21.20
2017-07-06T19:10:17.545Z,20.70
2017-07-06T19:12:45.762Z,20.50
2017-07-06T19:15:13.965Z,20.40
2017-07-06T19:17:42.188Z,20.40
2017-07-06T19:20:10.407Z,20.40
2017-07-06T19:22:38.603Z,20.40
2017-07-06T19:25:08.406Z,20.30
2017-07-06T19:27:36.626Z,20.20
2017-07-06T19:30:04.994Z,20.30
2017-07-06T19:32:33.194Z,20.30
2017-07-06T19:35:01.624Z,20.10
2017-07-06T19:37:29.874Z,19.90
2017-07-06T19:39:58.063Z,19.90
2017-07-06T19:42:26.449Z,19.90
2017-07-06T19:44:54.657Z,19.70
2017-07-06T19:47:23.689Z,19.70
2017-07-06T19:49:52.774Z,19.70
2017-07-06T19:52:21.025Z,19.70
2017-07-06T19:54:50.212Z,19.80
2017-07-06T19:57:19.321Z,19.80
2017-07-06T19:59:47.524Z,19.70
2017-07-06T20:02:15.739Z,19.80
2017-07-06T20:04:43.958Z,19.80
2017-07-06T20:07:12.219Z,19.80
2017-07-06T20:09:41.190Z,19.80
2017-07-06T20:12:09.406Z,19.80
2017-07-06T20:14:38.476Z,19.80
2017-07-06T20:17:07.593Z,19.90
2017-07-06T20:19:35.809Z,19.80
2017-07-06T20:22:04.024Z,19.70
2017-07-06T20:24:32.223Z,19.50
2017-07-06T20:27:00.442Z,19.60
2017-07-06T20:29:28.660Z,19.60
2017-07-06T20:31:56.858Z,19.50
2017-07-06T20:34:25.845Z,19.50
2017-07-06T20:36:54.064Z,19.50
2017-07-06T20:39:22.282Z,19.50
2017-07-06T20:41:51.307Z,19.40
2017-07-06T20:44:19.531Z,19.40
2017-07-06T20:46:47.726Z,19.40
2017-07-06T20:49:15.950Z,19.30
2017-07-06T20:51:45.067Z,19.20
2017-07-06T20:54:13.260Z,19.40
2017-07-06T20:56:41.501Z,19.50
2017-07-06T20:59:09.749Z,19.60
2017-07-06T21:01:37.978Z,19.70
2017-07-06T21:04:06.333Z,19.90
2017-07-06T21:06:38.880Z,20.00
2017-07-06T21:09:11.353Z,20.20
2017-07-06T21:11:39.539Z,20.20
2017-07-06T21:14:07.728Z,20.20
2017-07-06T21:16:36.019Z,20.20
2017-07-06T21:19:04.274Z,20.20
2017-07-06T21:21:32.508Z,20.20
2017-07-06T21:24:00.709Z,19.90
2017-07-06T21:26:28.922Z,19.70
2017-07-06T21:28:57.208Z,19.50
2017-07-06T21:31:25.416Z,19.30
2017-07-06T21:33:53.776Z,19.30
2017-07-06T21:36:22.048Z,19.40
2017-07-06T21:38:50.287Z,19.30
2017-07-06T21:41:18.538Z,19.40
2017-07-06T21:43:46.749Z,19.40
2017-07-06T21:46:14.971Z,19.50
2017-07-06T21:48:43.236Z,19.30
2017-07-06T21:51:11.465Z,19.30
2017-07-06T21:53:39.673Z,19.30
2017-07-06T21:56:08.681Z,19.10
2017-07-06T21:58:37.687Z,19.10
2017-07-06T22:01:05.886Z,19.00
2017-07-06T22:03:34.166Z,19.10
2017-07-06T22:06:02.392Z,18.90
2017-07-06T22:08:30.650Z,18.90
2017-07-06T22:10:58.867Z,18.90
2017-07-06T22:13:27.079Z,19.00
2017-07-06T22:15:55.314Z,19.00
2017-07-06T22:18:24.419Z,19.00
2017-07-06T22:20:52.710Z,18.90
2017-07-06T22:23:20.909Z,19.00
2017-07-06T22:25:49.138Z,19.00
2017-07-06T22:28:17.362Z,19.00
2017-07-06T22:30:45.558Z,19.10
2017-07-06T22:33:13.784Z,19.10
2017-07-06T22:35:42.004Z,19.10
2017-07-06T22:38:10.201Z,19.10
2017-07-06T22:40:38.419Z,19.10
2017-07-06T22:43:06.618Z,19.00
2017-07-06T22:45:34.855Z,19.00
2017-07-06T22:48:03.136Z,19.00
2017-07-06T22:50:31.446Z,19.00
2017-07-06T22:52:59.675Z,19.00
2017-07-06T22:55:28.701Z,19.10
2017-07-06T22:57:56.911Z,19.00
2017-07-06T23:00:25.123Z,19.10
2017-07-06T23:02:53.320Z,19.10
2017-07-06T23:05:21.526Z,19.20
2017-07-06T23:07:49.740Z,19.30
2017-07-06T23:10:17.964Z,19.30
2017-07-06T23:12:46.164Z,19.30
2017-07-06T23:15:14.425Z,19.50
2017-07-06T23:17:42.722Z,19.60
2017-07-06T23:20:10.922Z,19.70
2017-07-06T23:22:39.636Z,19.80
2017-07-06T23:25:07.972Z,19.90
2017-07-06T23:27:36.963Z,20.00
2017-07-06T23:30:05.165Z,19.90
2017-07-06T23:32:33.416Z,20.00
2017-07-06T23:35:02.425Z,20.00
2017-07-06T23:37:30.630Z,20.00
2017-07-06T23:39:59.077Z,20.00
2017-07-06T23:42:28.049Z,19.90
2017-07-06T23:44:56.253Z,19.90
2017-07-06T23:47:24.460Z,19.80
2017-07-06T23:49:52.690Z,19.80
2017-07-06T23:52:20.973Z,19.90
2017-07-06T23:54:50.069Z,19.80
2017-07-06T23:57:19.049Z,19.70
2017-07-06T23:59:47.246Z,19.70
